createdAt,value
2023-01-04T00:02:37.219Z,9.27
2023-01-04T00:05:27.176Z,10.30
2023-01-04T00:08:15.662Z,9.97
2023-01-04T00:11:05.333Z,9.00
2023-01-04T00:13:57.060Z,8.83
2023-01-04T00:16:45.631Z,8.70
2023-01-04T00:19:34.328Z,8.23
2023-01-04T00:22:24.143Z,9.80
2023-01-04T00:25:12.620Z,10.70
2023-01-04T00:28:01.409Z,11.13
2023-01-04T00:30:49.979Z,11.00
2023-01-04T00:33:38.537Z,11.83
2023-01-04T00:36:27.710Z,11.50
2023-01-04T00:39:18.171Z,10.90
2023-01-04T00:42:06.823Z,10.20
2023-01-04T00:44:55.453Z,10.53
2023-01-04T00:47:43.912Z,10.43
2023-01-04T00:50:32.446Z,10.57
2023-01-04T00:53:20.927Z,10.97
2023-01-04T00:56:10.799Z,10.93
2023-01-04T00:59:00.741Z,10.00
2023-01-04T01:01:49.497Z,11.80
2023-01-04T01:04:38.073Z,11.33
2023-01-04T01:07:26.494Z,10.77
2023-01-04T01:10:14.965Z,12.00
2023-01-04T01:13:04.749Z,12.77
2023-01-04T01:15:53.270Z,12.20
2023-01-04T01:18:43.790Z,10.93
2023-01-04T01:21:32.752Z,10.53
2023-01-04T01:24:21.973Z,11.83
2023-01-04T01:27:10.455Z,9.83
2023-01-04T01:30:00.304Z,9.83
2023-01-04T01:32:48.810Z,9.57
2023-01-04T01:35:37.726Z,10.67
2023-01-04T01:38:26.183Z,11.70
2023-01-04T01:41:19.592Z,12.33
2023-01-04T01:44:46.691Z,11.53
2023-01-04T01:47:40.777Z,12.10
2023-01-04T01:50:32.362Z,11.07
2023-01-04T01:53:21.649Z,11.20
2023-01-04T01:56:11.100Z,9.97
2023-01-04T01:59:00.095Z,10.13
2023-01-04T02:01:48.759Z,11.03
2023-01-04T02:04:40.285Z,9.73
2023-01-04T02:07:29.574Z,9.97
2023-01-04T02:10:18.474Z,10.80
2023-01-04T02:13:09.594Z,9.13
2023-01-04T02:16:07.609Z,9.90
2023-01-04T02:18:59.484Z,9.87
2023-01-04T02:22:00.406Z,9.27
2023-01-04T02:25:00.328Z,9.70
2023-01-04T02:27:52.506Z,9.50
2023-01-04T02:31:06.947Z,9.93
2023-01-04T02:34:01.491Z,9.97
2023-01-04T02:36:56.492Z,10.87
2023-01-04T02:39:49.909Z,10.57
2023-01-04T02:43:03.529Z,9.10
2023-01-04T02:45:54.655Z,9.60
2023-01-04T02:49:01.730Z,9.83
2023-01-04T02:51:50.204Z,9.67
2023-01-04T02:54:39.090Z,10.50
2023-01-04T02:57:36.382Z,10.57
2023-01-04T03:00:36.002Z,10.73
2023-01-04T03:03:46.321Z,14.20
2023-01-04T03:06:41.757Z,15.03
2023-01-04T03:09:33.596Z,17.30
2023-01-04T03:12:35.423Z,19.17
2023-01-04T03:15:26.355Z,19.20
2023-01-04T03:18:18.288Z,18.17
2023-01-04T03:21:09.275Z,18.10
2023-01-04T03:24:17.760Z,18.77
2023-01-04T03:27:24.147Z,21.60
2023-01-04T03:30:32.233Z,18.20
2023-01-04T03:33:38.420Z,20.60
2023-01-04T03:36:37.663Z,20.00
2023-01-04T03:39:52.185Z,20.50
2023-01-04T03:43:03.008Z,21.83
2023-01-04T03:46:13.936Z,20.47
2023-01-04T03:49:06.956Z,20.10
2023-01-04T03:51:58.724Z,21.10
2023-01-04T03:54:50.017Z,21.70
2023-01-04T03:57:38.513Z,20.43
2023-01-04T04:00:27.202Z,21.10
2023-01-04T04:03:15.673Z,21.63
2023-01-04T04:06:22.128Z,19.57
2023-01-04T04:09:10.562Z,20.10
2023-01-04T04:12:00.418Z,19.83
2023-01-04T04:14:48.862Z,19.70
2023-01-04T04:17:37.383Z,18.77
2023-01-04T04:20:25.861Z,18.50
2023-01-04T04:23:14.337Z,18.63
2023-01-04T04:26:02.784Z,17.70
2023-01-04T04:28:52.595Z,17.80
2023-01-04T04:31:41.091Z,14.87
2023-01-04T04:34:29.602Z,10.87
2023-01-04T04:37:18.038Z,9.00
2023-01-04T04:40:07.247Z,9.70
2023-01-04T04:42:55.311Z,8.80
2023-01-04T04:45:45.082Z,8.13
2023-01-04T04:48:33.628Z,9.40
2023-01-04T04:51:22.069Z,9.40
2023-01-04T04:54:12.011Z,9.03
2023-01-04T04:57:00.458Z,10.00
2023-01-04T04:59:48.885Z,9.60
2023-01-04T05:02:38.817Z,9.23
2023-01-04T05:05:27.392Z,8.77
2023-01-04T05:08:15.862Z,9.53
2023-01-04T05:11:06.460Z,9.53
2023-01-04T05:13:53.905Z,9.03
2023-01-04T05:16:42.600Z,10.30
2023-01-04T05:19:32.414Z,9.47
2023-01-04T05:22:20.838Z,9.30
2023-01-04T05:25:11.639Z,8.87
2023-01-04T05:28:00.363Z,9.23
2023-01-04T05:30:53.433Z,9.30
2023-01-04T05:33:42.000Z,9.57
2023-01-04T05:36:31.815Z,9.00
2023-01-04T05:39:20.284Z,8.07
2023-01-04T05:42:27.880Z,9.33
2023-01-04T05:45:17.330Z,8.43
2023-01-04T05:48:06.121Z,9.03
2023-01-04T05:50:54.685Z,9.80
2023-01-04T05:53:44.458Z,10.17
2023-01-04T05:56:32.909Z,9.70
2023-01-04T05:59:21.387Z,9.10
2023-01-04T06:02:15.747Z,8.73
2023-01-04T06:05:05.192Z,9.67
2023-01-04T06:07:53.904Z,9.00
2023-01-04T06:10:43.753Z,9.63
2023-01-04T06:13:32.235Z,9.20
2023-01-04T06:16:20.694Z,8.80
2023-01-04T06:19:09.230Z,9.67
2023-01-04T06:21:57.733Z,8.90
2023-01-04T06:24:46.220Z,10.00
2023-01-04T06:27:36.009Z,8.43
2023-01-04T06:30:24.533Z,9.03
2023-01-04T06:33:13.036Z,8.70
2023-01-04T06:36:01.844Z,9.83
2023-01-04T06:38:50.554Z,9.27
2023-01-04T06:41:39.214Z,9.27
2023-01-04T06:44:29.004Z,8.97
2023-01-04T06:47:17.469Z,9.00
2023-01-04T06:50:06.300Z,8.27
2023-01-04T06:52:54.757Z,8.77
2023-01-04T06:55:44.692Z,8.40
2023-01-04T06:58:33.135Z,8.20
2023-01-04T07:01:23.012Z,9.10
2023-01-04T07:04:11.623Z,9.33
2023-01-04T07:07:00.122Z,9.33
2023-01-04T07:09:48.559Z,8.50
2023-01-04T07:12:37.759Z,8.67
2023-01-04T07:15:37.977Z,8.00
2023-01-04T07:18:30.136Z,7.60
2023-01-04T07:21:18.600Z,7.80
2023-01-04T07:24:07.087Z,7.70
2023-01-04T07:26:55.759Z,9.47
2023-01-04T07:29:44.332Z,8.33
2023-01-04T07:32:32.816Z,9.20
2023-01-04T07:35:23.257Z,7.17
2023-01-04T07:38:11.683Z,7.80
2023-01-04T07:41:00.137Z,6.23
2023-01-04T07:43:48.575Z,4.60
2023-01-04T07:46:37.366Z,3.90
2023-01-04T07:49:25.902Z,3.13
2023-01-04T07:52:15.809Z,2.50
2023-01-04T07:55:04.292Z,2.27
2023-01-04T07:57:54.098Z,2.20
2023-01-04T08:00:42.564Z,2.00
2023-01-04T08:03:31.004Z,2.03
2023-01-04T08:06:21.164Z,2.07
2023-01-04T08:09:12.163Z,1.80
2023-01-04T08:12:01.083Z,1.87
2023-01-04T08:14:49.591Z,1.77
2023-01-04T08:17:38.075Z,1.67
2023-01-04T08:20:26.629Z,1.70
2023-01-04T08:23:15.223Z,1.80
2023-01-04T08:26:06.903Z,1.73
2023-01-04T08:28:56.761Z,1.90
2023-01-04T08:31:45.350Z,1.50
2023-01-04T08:34:33.852Z,1.60
2023-01-04T08:37:22.303Z,1.63
2023-01-04T08:40:11.677Z,1.70
2023-01-04T08:43:01.545Z,1.97
2023-01-04T08:45:50.050Z,1.63
2023-01-04T08:48:38.935Z,1.50
2023-01-04T08:51:27.410Z,1.53
2023-01-04T08:54:15.939Z,1.60
2023-01-04T08:57:04.507Z,2.07
2023-01-04T08:59:54.389Z,1.90
2023-01-04T09:02:42.969Z,1.60
2023-01-04T09:05:33.124Z,1.70
2023-01-04T09:08:21.647Z,2.20
2023-01-04T09:11:13.413Z,2.00
2023-01-04T09:14:07.770Z,2.60
2023-01-04T09:16:58.559Z,3.50
2023-01-04T09:19:46.992Z,1.50
2023-01-04T09:22:35.555Z,2.27
2023-01-04T09:25:24.316Z,1.70
2023-01-04T09:28:12.821Z,1.50
2023-01-04T09:31:06.219Z,1.50
2023-01-04T09:37:04.925Z,1.73
2023-01-04T09:39:53.468Z,1.70
2023-01-04T09:42:42.646Z,2.17
2023-01-04T09:45:31.241Z,1.80
2023-01-04T09:48:25.462Z,1.50
2023-01-04T09:51:17.875Z,1.60
2023-01-04T09:54:12.239Z,1.50
2023-01-04T09:57:00.800Z,1.80
2023-01-04T09:59:49.761Z,1.60
2023-01-04T10:02:41.870Z,1.90
2023-01-04T10:05:33.014Z,1.67
2023-01-04T10:08:22.991Z,1.60
2023-01-04T10:11:20.260Z,1.57
2023-01-04T10:14:23.821Z,1.40
2023-01-04T10:17:44.410Z,1.50
2023-01-04T10:21:28.282Z,1.70
2023-01-04T10:24:30.451Z,1.67
2023-01-04T10:27:26.079Z,1.27
2023-01-04T10:30:25.574Z,1.80
2023-01-04T10:33:15.855Z,2.10
2023-01-04T10:36:04.468Z,2.07
2023-01-04T10:38:58.500Z,1.63
2023-01-04T10:41:54.583Z,1.80
2023-01-04T10:44:53.069Z,2.30
2023-01-04T10:47:48.731Z,1.60
2023-01-04T10:50:41.923Z,1.83
2023-01-04T10:53:35.981Z,1.47
2023-01-04T10:56:27.829Z,1.70
2023-01-04T10:59:21.799Z,1.50
2023-01-04T11:02:18.702Z,1.60
2023-01-04T11:05:13.279Z,1.40
2023-01-04T11:08:03.798Z,1.87
2023-01-04T11:10:55.129Z,1.67
2023-01-04T11:13:43.714Z,1.63
2023-01-04T11:16:33.828Z,1.80
2023-01-04T11:19:22.471Z,1.70
2023-01-04T11:22:16.549Z,1.77
2023-01-04T11:25:34.334Z,1.43
2023-01-04T11:28:19.735Z,1.70
2023-01-04T11:31:17.723Z,2.07
2023-01-04T11:34:07.751Z,1.50
2023-01-04T11:36:56.293Z,1.60
2023-01-04T11:39:44.837Z,1.50
2023-01-04T11:42:33.347Z,2.33
2023-01-04T11:45:24.405Z,1.60
2023-01-04T11:48:16.080Z,1.43
2023-01-04T11:51:10.145Z,1.70
2023-01-04T11:54:04.964Z,1.80
2023-01-04T11:57:11.377Z,1.57
2023-01-04T12:00:14.500Z,1.33
2023-01-04T12:03:13.204Z,1.80
2023-01-04T12:06:01.710Z,1.53
2023-01-04T12:08:51.561Z,1.33
2023-01-04T12:11:43.691Z,1.50
2023-01-04T12:14:35.950Z,1.43
2023-01-04T12:17:26.871Z,1.67
2023-01-04T12:20:20.040Z,1.20
2023-01-04T12:23:10.121Z,1.47
2023-01-04T12:25:59.978Z,1.20
2023-01-04T12:28:50.341Z,1.40
2023-01-04T12:31:38.920Z,1.50
2023-01-04T12:34:41.235Z,1.43
2023-01-04T12:37:49.424Z,1.50
2023-01-04T12:40:54.180Z,1.53
2023-01-04T12:43:28.349Z,1.60
2023-01-04T12:46:51.545Z,1.57
2023-01-04T12:49:45.848Z,1.50
2023-01-04T12:52:48.463Z,1.67
2023-01-04T12:55:56.552Z,1.50
2023-01-04T13:02:18.311Z,1.60
2023-01-04T13:04:46.843Z,1.50
2023-01-04T13:07:19.422Z,1.43
2023-01-04T13:09:53.028Z,1.67
2023-01-04T13:12:36.611Z,1.47
2023-01-04T13:15:14.343Z,1.60
2023-01-04T13:17:46.072Z,1.77
2023-01-04T13:20:17.118Z,1.17
2023-01-04T13:22:50.554Z,2.37
2023-01-04T13:25:20.199Z,1.30
2023-01-04T13:27:59.151Z,1.30
2023-01-04T13:30:37.758Z,1.63
2023-01-04T13:33:27.803Z,1.50
2023-01-04T13:36:04.424Z,1.40
2023-01-04T13:38:35.535Z,1.13
2023-01-04T13:41:05.286Z,1.57
2023-01-04T13:43:57.357Z,1.70
2023-01-04T13:46:27.962Z,1.43
2023-01-04T13:49:01.446Z,1.60
2023-01-04T13:51:36.979Z,1.60
2023-01-04T13:54:07.405Z,1.70
2023-01-04T13:56:36.486Z,1.67
2023-01-04T13:59:04.660Z,1.43
2023-01-04T14:01:36.620Z,1.63
2023-01-04T14:04:06.144Z,1.50
2023-01-04T14:06:35.690Z,1.33
2023-01-04T14:09:06.709Z,1.47
2023-01-04T14:11:54.312Z,1.50
2023-01-04T14:14:45.692Z,1.50
2023-01-04T14:17:18.267Z,1.50
2023-01-04T14:19:49.305Z,1.70
2023-01-04T14:22:43.735Z,1.60
2023-01-04T14:25:48.463Z,1.50
2023-01-04T14:28:41.860Z,2.00
2023-01-04T14:31:25.072Z,1.60
2023-01-04T14:33:55.130Z,1.50
2023-01-04T14:36:26.869Z,1.60
2023-01-04T14:38:59.806Z,1.60
2023-01-04T14:41:31.436Z,1.70
2023-01-04T14:44:14.233Z,1.47
2023-01-04T14:46:43.862Z,1.57
2023-01-04T14:49:13.546Z,1.60
2023-01-04T14:51:44.122Z,1.90
2023-01-04T14:54:14.532Z,1.70
2023-01-04T14:56:45.913Z,1.50
2023-01-04T14:59:14.234Z,1.63
2023-01-04T15:01:42.523Z,1.63
2023-01-04T15:04:10.838Z,1.80
2023-01-04T15:06:48.237Z,1.63
2023-01-04T15:09:16.921Z,1.50
2023-01-04T15:11:45.140Z,1.73
2023-01-04T15:14:13.459Z,1.30
2023-01-04T15:16:41.717Z,1.70
2023-01-04T15:19:10.038Z,1.60
2023-01-04T15:21:41.185Z,1.40
2023-01-04T15:24:11.479Z,1.50
2023-01-04T15:26:40.236Z,1.57
2023-01-04T15:29:09.679Z,1.40
2023-01-04T15:31:40.489Z,1.50
2023-01-04T15:34:10.159Z,1.60
2023-01-04T15:36:40.794Z,1.60
2023-01-04T15:39:14.101Z,1.40
2023-01-04T15:42:00.182Z,1.50
2023-01-04T15:44:28.810Z,1.33
2023-01-04T15:46:59.260Z,1.20
2023-01-04T15:49:30.339Z,1.50
2023-01-04T15:51:58.586Z,1.50
2023-01-04T15:54:46.715Z,1.30
2023-01-04T15:57:40.053Z,1.30
2023-01-04T16:00:30.480Z,1.53
2023-01-04T16:03:19.163Z,1.30
2023-01-04T16:06:08.995Z,1.60
2023-01-04T16:08:58.918Z,1.50
2023-01-04T16:12:06.194Z,1.70
2023-01-04T16:14:54.732Z,1.70
2023-01-04T16:17:43.412Z,1.60
2023-01-04T16:20:31.864Z,1.40
2023-01-04T16:23:20.339Z,1.50
2023-01-04T16:26:10.150Z,1.70
2023-01-04T16:29:00.821Z,1.33
2023-01-04T16:31:49.401Z,1.57
2023-01-04T16:34:38.068Z,1.43
2023-01-04T16:37:28.379Z,1.90
2023-01-04T16:40:16.942Z,1.57
2023-01-04T16:43:07.033Z,1.60
2023-01-04T16:46:21.741Z,1.80
2023-01-04T16:49:12.636Z,1.70
2023-01-04T16:52:01.192Z,1.50
2023-01-04T16:54:49.959Z,1.40
2023-01-04T16:57:38.451Z,1.70
2023-01-04T17:00:26.944Z,1.73
2023-01-04T17:03:16.843Z,1.57
2023-01-04T17:06:09.810Z,1.60
2023-01-04T17:08:59.244Z,1.47
2023-01-04T17:12:46.183Z,1.40
2023-01-04T17:18:20.745Z,1.67
2023-01-04T17:21:33.213Z,2.13
2023-01-04T17:24:21.727Z,1.80
2023-01-04T17:27:10.815Z,1.43
2023-01-04T17:29:59.352Z,1.50
2023-01-04T17:32:47.839Z,1.60
2023-01-04T17:35:38.714Z,1.73
2023-01-04T17:38:27.200Z,1.70
2023-01-04T17:41:17.525Z,1.83
2023-01-04T17:44:07.347Z,2.00
2023-01-04T17:46:56.056Z,1.93
2023-01-04T17:49:45.732Z,2.03
2023-01-04T17:52:35.623Z,1.60
2023-01-04T17:55:24.101Z,1.90
2023-01-04T17:58:13.243Z,1.57
2023-01-04T18:01:09.832Z,1.57
2023-01-04T18:03:59.481Z,2.17
2023-01-04T18:06:47.991Z,1.80
2023-01-04T18:09:37.912Z,1.90
2023-01-04T18:12:26.544Z,1.80
2023-01-04T18:15:15.054Z,2.10
2023-01-04T18:18:03.601Z,1.80
2023-01-04T18:20:52.577Z,1.77
2023-01-04T18:23:44.029Z,2.20
2023-01-04T18:27:10.654Z,2.00
2023-01-04T18:29:45.585Z,1.60
2023-01-04T18:32:34.056Z,1.90
2023-01-04T18:35:22.540Z,1.70
2023-01-04T18:38:12.549Z,1.90
2023-01-04T18:41:01.054Z,1.70
2023-01-04T18:44:05.755Z,1.60
2023-01-04T18:47:01.131Z,1.90
2023-01-04T18:49:50.077Z,1.80
2023-01-04T18:52:38.771Z,2.03
2023-01-04T18:55:27.258Z,1.80
2023-01-04T18:58:15.751Z,1.90
2023-01-04T19:01:08.292Z,2.10
2023-01-04T19:03:57.049Z,1.83
2023-01-04T19:06:45.641Z,1.80
2023-01-04T19:09:34.280Z,2.13
2023-01-04T19:12:22.907Z,2.10
2023-01-04T19:15:12.348Z,1.97
2023-01-04T19:18:02.418Z,1.50
2023-01-04T19:20:50.933Z,1.50
2023-01-04T19:23:39.507Z,2.00
2023-01-04T19:26:28.025Z,1.87
2023-01-04T19:29:18.836Z,1.60
2023-01-04T19:32:07.601Z,1.90
2023-01-04T19:34:57.579Z,1.70
2023-01-04T19:37:46.155Z,1.83
2023-01-04T19:40:34.660Z,1.93
2023-01-04T19:43:23.115Z,2.13
2023-01-04T19:46:12.536Z,1.80
2023-01-04T19:49:01.256Z,1.40
2023-01-04T19:51:51.730Z,1.70
2023-01-04T19:54:40.463Z,1.60
2023-01-04T19:57:30.000Z,1.87
2023-01-04T20:00:19.587Z,1.30
2023-01-04T20:03:08.565Z,2.03
2023-01-04T20:06:02.642Z,1.87
2023-01-04T20:08:52.672Z,1.70
2023-01-04T20:11:41.204Z,1.60
2023-01-04T20:14:30.719Z,1.63
2023-01-04T20:17:19.185Z,1.40
2023-01-04T20:20:07.986Z,1.40
2023-01-04T20:22:56.422Z,1.80
2023-01-04T20:25:48.312Z,1.40
2023-01-04T20:28:38.429Z,1.37
2023-01-04T20:31:26.927Z,1.40
2023-01-04T20:34:15.513Z,1.43
2023-01-04T20:37:04.100Z,1.30
2023-01-04T20:39:52.698Z,1.70
2023-01-04T20:43:00.197Z,1.30
2023-01-04T20:45:49.990Z,1.40
2023-01-04T20:48:38.762Z,1.40
2023-01-04T20:51:29.622Z,1.20
2023-01-04T20:54:18.123Z,1.73
2023-01-04T20:57:06.723Z,1.60
2023-01-04T20:59:56.653Z,2.07
2023-01-04T21:02:45.395Z,1.80
2023-01-04T21:05:37.870Z,1.40
2023-01-04T21:08:26.335Z,1.40
2023-01-04T21:11:15.292Z,1.40
2023-01-04T21:14:03.987Z,1.57
2023-01-04T21:16:53.881Z,1.73
2023-01-04T21:19:42.380Z,2.23
2023-01-04T21:22:30.874Z,1.40
2023-01-04T21:25:19.443Z,1.50
2023-01-04T21:28:08.118Z,1.30
2023-01-04T21:30:56.620Z,1.37
2023-01-04T21:33:46.917Z,1.30
2023-01-04T21:36:35.421Z,1.37
2023-01-04T21:39:23.889Z,1.40
2023-01-04T21:42:12.386Z,1.20
2023-01-04T21:45:00.855Z,1.40
2023-01-04T21:47:49.413Z,1.30
2023-01-04T21:50:39.201Z,1.50
2023-01-04T21:53:29.113Z,1.40
2023-01-04T21:56:19.405Z,1.37
2023-01-04T21:59:07.824Z,1.20
2023-01-04T22:01:56.375Z,1.20
2023-01-04T22:04:45.273Z,1.10
2023-01-04T22:07:35.241Z,1.30
2023-01-04T22:10:23.761Z,1.20
2023-01-04T22:13:12.280Z,1.23
2023-01-04T22:16:00.840Z,1.43
2023-01-04T22:18:49.724Z,1.57
2023-01-04T22:21:38.224Z,1.20
2023-01-04T22:24:31.475Z,1.00
2023-01-04T22:27:24.034Z,1.00
2023-01-04T22:30:13.360Z,1.20
2023-01-04T22:33:01.840Z,1.20
2023-01-04T22:35:50.842Z,1.30
2023-01-04T22:38:40.329Z,1.10
2023-01-04T22:41:30.185Z,1.50
2023-01-04T22:44:18.638Z,1.40
2023-01-04T22:47:07.331Z,1.27
2023-01-04T22:49:55.811Z,1.20
2023-01-04T22:52:50.677Z,1.20
2023-01-04T22:56:09.273Z,1.50
2023-01-04T22:58:54.330Z,1.70
2023-01-04T23:01:43.891Z,1.20
2023-01-04T23:04:32.344Z,1.23
2023-01-04T23:07:20.938Z,1.27
2023-01-04T23:10:11.269Z,1.30
2023-01-04T23:12:59.717Z,1.37
2023-01-04T23:15:49.595Z,1.37
2023-01-04T23:18:38.692Z,1.20
2023-01-04T23:21:27.190Z,1.60
2023-01-04T23:24:16.269Z,1.50
2023-01-04T23:27:04.843Z,1.50
2023-01-04T23:29:53.379Z,1.50
2023-01-04T23:32:43.906Z,1.20
2023-01-04T23:35:32.376Z,1.20
2023-01-04T23:38:20.792Z,1.20
2023-01-04T23:41:09.587Z,1.23
2023-01-04T23:43:58.042Z,1.43
2023-01-04T23:46:47.335Z,1.60
2023-01-04T23:49:39.575Z,1.37
2023-01-04T23:52:28.033Z,1.40
2023-01-04T23:55:16.554Z,1.20
2023-01-04T23:58:04.969Z,1.40
